Modesto, California
Current Conditions -  °F | °C
As of 6:53 AM on Friday 19 Dec 2014 (Local Time) from KMOD Reporting Station
Clear Clear  
Wind Chill: 50°   Ceiling: Unl
Heat Index: 50°   Visibility: 10mi
Dew Point: 44°   Wind: 7mph
Humidity: 80%   Direction: 140°SE
Pressure: 30.15"   Gusts: NA
Location:  37.64°N, 120.99°W
Report Text: KMOD 191453Z 14006KT 10SM CLR 10/07 A3015 RMK AO2 SLP210 60000 T01000067 58003
Loading
Personal Weather Stations






























Interactive Weather Map New forecast layout! Learn more

10-Day Weather Forecast

Advertisements
Track Severe Weather on mobile